createdAt,value
2024-03-07T00:00:27.350Z,12.20
2024-03-07T00:04:28.835Z,11.74
2024-03-07T00:08:31.639Z,12.10
2024-03-07T00:12:33.915Z,11.90
2024-03-07T00:16:35.951Z,11.71
2024-03-07T00:20:37.430Z,11.75
2024-03-07T00:24:39.896Z,12.03
2024-03-07T00:28:41.695Z,12.06
2024-03-07T00:32:43.261Z,11.91
2024-03-07T00:36:44.876Z,11.95
2024-03-07T00:40:46.353Z,11.88
2024-03-07T00:44:47.933Z,11.56
2024-03-07T00:48:49.647Z,11.80
2024-03-07T00:52:51.235Z,11.59
2024-03-07T00:56:53.045Z,11.52
2024-03-07T01:00:57.149Z,11.60
2024-03-07T01:04:59.329Z,11.23
2024-03-07T01:09:00.873Z,11.82
2024-03-07T01:13:03.303Z,11.73
2024-03-07T01:17:08.034Z,11.49
2024-03-07T01:21:09.581Z,11.49
2024-03-07T01:25:11.113Z,11.75
2024-03-07T01:29:13.075Z,11.42
2024-03-07T01:33:14.611Z,11.41
2024-03-07T01:37:16.482Z,11.48
2024-03-07T01:41:18.318Z,11.74
2024-03-07T01:45:19.936Z,11.59
2024-03-07T01:49:21.484Z,11.70
2024-03-07T01:53:24.098Z,11.33
2024-03-07T01:57:26.784Z,11.31
2024-03-07T02:01:28.582Z,11.28
2024-03-07T02:05:30.081Z,11.31
2024-03-07T02:09:32.651Z,11.18
2024-03-07T02:13:34.151Z,11.58
2024-03-07T02:17:37.032Z,11.58
2024-03-07T02:21:38.524Z,11.58
2024-03-07T02:25:40.078Z,10.91
2024-03-07T02:29:43.057Z,11.49
2024-03-07T02:33:44.624Z,11.25
2024-03-07T02:37:47.312Z,11.20
2024-03-07T02:41:49.180Z,11.52
2024-03-07T02:45:51.068Z,11.47
2024-03-07T02:49:52.534Z,11.49
2024-03-07T02:53:54.080Z,11.14
2024-03-07T02:57:55.607Z,11.49
2024-03-07T03:01:57.043Z,11.36
2024-03-07T03:05:59.427Z,11.31
2024-03-07T03:10:00.900Z,11.35
2024-03-07T03:14:02.382Z,11.12
2024-03-07T03:18:04.318Z,11.43
2024-03-07T03:22:06.345Z,11.05
2024-03-07T03:26:08.035Z,11.41
2024-03-07T03:30:14.369Z,11.33
2024-03-07T03:34:15.727Z,11.38
2024-03-07T03:38:19.252Z,11.34
2024-03-07T03:42:21.289Z,11.31
2024-03-07T03:46:24.536Z,11.05
2024-03-07T03:50:26.018Z,11.29
2024-03-07T03:54:27.626Z,11.41
2024-03-07T03:58:29.890Z,11.36
2024-03-07T04:02:31.401Z,11.03
2024-03-07T04:06:33.034Z,10.95
2024-03-07T04:10:34.558Z,11.08
2024-03-07T04:14:36.388Z,11.32
2024-03-07T04:18:37.956Z,11.20
2024-03-07T04:22:40.018Z,11.09
2024-03-07T04:26:44.361Z,11.13
2024-03-07T04:30:45.908Z,11.13
2024-03-07T04:34:47.653Z,10.97
2024-03-07T04:38:49.185Z,11.13
2024-03-07T04:42:51.242Z,11.10
2024-03-07T04:46:56.577Z,11.17
2024-03-07T04:50:59.592Z,11.47
2024-03-07T04:55:01.256Z,11.43
2024-03-07T04:59:02.777Z,11.39
2024-03-07T05:03:05.987Z,11.39
2024-03-07T05:07:07.554Z,11.26
2024-03-07T05:11:09.677Z,11.52
2024-03-07T05:15:11.500Z,11.51
2024-03-07T05:19:13.304Z,11.12
2024-03-07T05:23:17.720Z,11.32
2024-03-07T05:27:19.724Z,11.52
2024-03-07T05:31:22.019Z,11.46
2024-03-07T05:35:23.574Z,11.39
2024-03-07T05:39:25.559Z,11.53
2024-03-07T05:43:27.064Z,11.32
2024-03-07T05:47:28.644Z,11.25
2024-03-07T05:51:30.686Z,11.27
2024-03-07T05:55:33.381Z,11.59
2024-03-07T05:59:35.022Z,11.19
2024-03-07T06:03:36.596Z,11.15
2024-03-07T06:07:38.042Z,11.26
2024-03-07T06:11:43.108Z,11.56
2024-03-07T06:15:46.967Z,11.54
2024-03-07T06:19:49.424Z,11.56
2024-03-07T06:24:00.282Z,11.30
2024-03-07T06:28:10.027Z,11.45
2024-03-07T06:32:12.895Z,11.34
2024-03-07T06:36:14.446Z,11.29
2024-03-07T06:40:22.025Z,11.21
2024-03-07T06:44:24.846Z,11.26
2024-03-07T06:48:26.780Z,11.59
2024-03-07T06:52:28.561Z,11.50
2024-03-07T06:56:30.067Z,11.61
2024-03-07T07:00:33.092Z,11.31
2024-03-07T07:04:42.842Z,11.32
2024-03-07T07:08:47.888Z,11.26
2024-03-07T07:12:49.651Z,11.39
2024-03-07T07:16:51.157Z,11.24
2024-03-07T07:20:55.660Z,11.52
2024-03-07T07:24:57.246Z,11.55
2024-03-07T07:28:59.217Z,11.60
2024-03-07T07:33:00.894Z,11.55
2024-03-07T07:37:02.399Z,11.25
2024-03-07T07:41:04.211Z,11.46
2024-03-07T07:45:12.403Z,11.26
2024-03-07T07:49:13.893Z,11.27
2024-03-07T07:53:15.365Z,11.62
2024-03-07T07:57:16.849Z,11.55
2024-03-07T08:01:18.565Z,11.59
2024-03-07T08:05:28.594Z,11.27
2024-03-07T08:09:30.330Z,11.32
2024-03-07T08:13:31.770Z,11.63
2024-03-07T08:17:33.370Z,11.51
2024-03-07T08:21:34.897Z,11.54
2024-03-07T08:25:36.541Z,11.58
2024-03-07T08:29:38.022Z,11.47
2024-03-07T08:33:39.962Z,11.76
2024-03-07T08:37:43.232Z,11.53
2024-03-07T08:41:47.602Z,11.48
2024-03-07T08:45:49.246Z,11.80
2024-03-07T08:49:50.753Z,11.73
2024-03-07T08:53:52.268Z,11.49
2024-03-07T08:57:54.127Z,11.75
2024-03-07T09:01:56.437Z,11.86
2024-03-07T09:05:57.912Z,11.70
2024-03-07T09:09:59.965Z,11.87
2024-03-07T09:14:01.434Z,11.39
2024-03-07T09:18:05.355Z,11.82
2024-03-07T09:22:09.135Z,11.66
2024-03-07T09:26:10.746Z,11.69
2024-03-07T09:30:13.703Z,11.51
2024-03-07T09:34:15.960Z,11.91
2024-03-07T09:38:17.736Z,11.86
2024-03-07T09:42:19.372Z,11.59
2024-03-07T09:46:24.584Z,11.93
2024-03-07T09:50:29.356Z,11.98
2024-03-07T09:54:30.908Z,11.77
2024-03-07T09:58:36.965Z,11.92
2024-03-07T10:02:42.183Z,11.96
2024-03-07T10:06:46.470Z,12.02
2024-03-07T10:10:48.947Z,12.04
2024-03-07T10:14:58.299Z,11.94
2024-03-07T10:19:02.876Z,12.03
2024-03-07T10:23:04.860Z,12.04
2024-03-07T10:27:07.145Z,12.07
2024-03-07T10:31:12.276Z,11.74
2024-03-07T10:35:15.371Z,12.00
2024-03-07T10:39:17.457Z,11.81
2024-03-07T10:43:21.446Z,11.73
2024-03-07T10:47:28.445Z,11.72
2024-03-07T10:51:40.801Z,12.08
2024-03-07T10:55:57.928Z,12.08
2024-03-07T11:00:24.726Z,11.75
2024-03-07T11:04:27.811Z,12.09
2024-03-07T11:08:29.733Z,12.09
2024-03-07T11:12:31.663Z,12.13
2024-03-07T11:16:34.488Z,11.73
2024-03-07T11:20:37.971Z,12.12
2024-03-07T11:24:39.595Z,11.76
2024-03-07T11:28:42.741Z,11.79
2024-03-07T11:32:45.977Z,12.09
2024-03-07T11:36:50.797Z,11.86
2024-03-07T11:40:52.489Z,12.06
2024-03-07T11:44:57.381Z,11.98
2024-03-07T11:49:01.098Z,11.82
2024-03-07T11:53:07.099Z,12.08
2024-03-07T11:57:14.068Z,11.73
2024-03-07T12:01:17.781Z,12.07
2024-03-07T12:05:20.890Z,11.74
2024-03-07T12:09:24.853Z,12.13
2024-03-07T12:13:27.658Z,11.98
2024-03-07T12:17:31.307Z,11.73
2024-03-07T12:21:33.927Z,11.74
2024-03-07T12:25:44.613Z,11.81
2024-03-07T12:29:49.360Z,12.13
2024-03-07T12:33:53.165Z,11.87
2024-03-07T12:37:55.470Z,11.82
2024-03-07T12:42:00.450Z,12.10
2024-03-07T12:46:02.076Z,12.09
2024-03-07T12:50:08.502Z,12.20
2024-03-07T12:54:13.294Z,11.85
2024-03-07T12:58:16.316Z,11.83
2024-03-07T13:02:17.939Z,11.83
2024-03-07T13:06:26.484Z,12.10
2024-03-07T13:10:28.263Z,11.86
2024-03-07T13:14:33.853Z,12.18
2024-03-07T13:18:36.230Z,11.87
2024-03-07T13:22:50.367Z,12.13
2024-03-07T13:26:51.930Z,11.64
2024-03-07T13:30:56.476Z,11.87
2024-03-07T13:35:00.926Z,12.14
2024-03-07T13:39:03.980Z,11.90
2024-03-07T13:43:07.435Z,11.85
2024-03-07T13:47:08.981Z,12.27
2024-03-07T13:51:10.816Z,12.05
2024-03-07T13:55:13.024Z,12.08
2024-03-07T13:59:14.401Z,12.30
2024-03-07T14:03:30.817Z,12.32
2024-03-07T14:08:01.268Z,11.69
2024-03-07T14:12:39.419Z,12.33
2024-03-07T14:17:13.368Z,12.33
2024-03-07T14:21:49.756Z,12.34
2024-03-07T14:26:33.084Z,12.36
2024-03-07T14:30:59.983Z,12.37
2024-03-07T14:35:01.352Z,12.40
2024-03-07T14:39:05.761Z,12.02
2024-03-07T14:43:07.725Z,12.34
2024-03-07T14:47:12.755Z,12.37
2024-03-07T14:51:15.565Z,12.36
2024-03-07T14:55:20.068Z,12.36
2024-03-07T14:59:22.220Z,12.30
2024-03-07T15:03:25.714Z,12.40
2024-03-07T15:07:27.239Z,12.15
2024-03-07T15:11:36.607Z,12.37
2024-03-07T15:15:38.483Z,12.31
2024-03-07T15:19:39.964Z,11.99
2024-03-07T15:23:41.484Z,12.03
2024-03-07T15:27:42.986Z,12.32
2024-03-07T15:31:44.465Z,12.37
2024-03-07T15:35:47.411Z,12.32
2024-03-07T15:39:49.001Z,12.26
2024-03-07T15:43:50.702Z,12.34
2024-03-07T15:47:54.424Z,11.97
2024-03-07T15:51:56.500Z,12.26
2024-03-07T15:55:58.917Z,12.33
2024-03-07T16:00:00.600Z,12.37
2024-03-07T16:04:02.201Z,11.98
2024-03-07T16:08:07.363Z,11.99
2024-03-07T16:12:09.445Z,12.21
2024-03-07T16:16:10.967Z,12.00
2024-03-07T16:20:15.584Z,12.06
2024-03-07T16:24:17.188Z,12.30
2024-03-07T16:28:22.819Z,12.33
2024-03-07T16:32:24.525Z,12.33
2024-03-07T16:36:27.263Z,12.37
2024-03-07T16:40:29.975Z,12.30
2024-03-07T16:44:33.263Z,12.37
2024-03-07T16:48:35.128Z,12.03
2024-03-07T16:52:37.931Z,12.41
2024-03-07T16:56:42.099Z,12.41
2024-03-07T17:00:44.935Z,12.33
2024-03-07T17:04:48.578Z,12.44
2024-03-07T17:08:50.454Z,12.35
2024-03-07T17:12:52.396Z,12.45
2024-03-07T17:16:55.603Z,12.36
2024-03-07T17:20:57.184Z,12.22
2024-03-07T17:24:58.673Z,12.06
2024-03-07T17:29:00.154Z,12.36
2024-03-07T17:33:02.358Z,12.03
2024-03-07T17:37:05.939Z,12.44
2024-03-07T17:41:07.484Z,12.20
2024-03-07T17:45:12.208Z,12.26
2024-03-07T17:49:15.078Z,12.02
2024-03-07T17:53:17.520Z,12.32
2024-03-07T17:57:19.150Z,12.11
2024-03-07T18:01:20.673Z,12.45
2024-03-07T18:05:24.186Z,12.30
2024-03-07T18:09:29.203Z,12.32
2024-03-07T18:13:31.785Z,12.41
2024-03-07T18:17:35.201Z,12.41
2024-03-07T18:21:37.190Z,12.44
2024-03-07T18:25:38.745Z,12.10
2024-03-07T18:29:40.501Z,12.14
2024-03-07T18:33:46.053Z,12.38
2024-03-07T18:37:51.778Z,12.38
2024-03-07T18:41:53.367Z,12.38
2024-03-07T18:45:54.845Z,12.15
2024-03-07T18:49:56.439Z,12.41
2024-03-07T18:53:57.919Z,12.16
2024-03-07T18:58:04.252Z,12.39
2024-03-07T19:02:11.294Z,12.34
2024-03-07T19:06:13.089Z,12.35
2024-03-07T19:10:18.040Z,12.23
2024-03-07T19:14:19.944Z,12.25
2024-03-07T19:18:23.453Z,11.95
2024-03-07T19:22:26.560Z,11.97
2024-03-07T19:26:30.148Z,11.96
2024-03-07T19:30:31.650Z,11.95
2024-03-07T19:34:33.634Z,12.17
2024-03-07T19:38:36.027Z,11.87
2024-03-07T19:42:40.910Z,11.90
2024-03-07T19:46:43.829Z,12.16
2024-03-07T19:50:46.849Z,12.21
2024-03-07T19:54:48.843Z,12.18
2024-03-07T19:58:50.856Z,12.20
2024-03-07T20:02:52.465Z,11.92
2024-03-07T20:06:54.086Z,11.80
2024-03-07T20:10:57.278Z,12.17
2024-03-07T20:14:58.849Z,11.89
2024-03-07T20:19:01.605Z,12.15
2024-03-07T20:23:04.943Z,12.15
2024-03-07T20:27:06.743Z,12.09
2024-03-07T20:31:09.449Z,12.13
2024-03-07T20:35:12.694Z,12.09
2024-03-07T20:39:23.880Z,11.71
2024-03-07T20:43:25.479Z,12.05
2024-03-07T20:47:27.461Z,12.00
2024-03-07T20:51:34.045Z,12.02
2024-03-07T20:55:36.410Z,11.99
2024-03-07T20:59:37.885Z,12.01
2024-03-07T21:03:43.007Z,11.63
2024-03-07T21:07:47.431Z,11.90
2024-03-07T21:11:49.259Z,11.72
2024-03-07T21:15:50.992Z,11.67
2024-03-07T21:19:52.943Z,11.51
2024-03-07T21:23:54.578Z,11.55
2024-03-07T21:27:56.198Z,11.59
2024-03-07T21:31:58.077Z,11.70
2024-03-07T21:35:59.637Z,11.89
2024-03-07T21:40:02.134Z,11.75
2024-03-07T21:44:03.663Z,11.44
2024-03-07T21:48:07.706Z,11.77
2024-03-07T21:52:13.887Z,11.43
2024-03-07T21:56:15.403Z,11.66
2024-03-07T22:00:19.060Z,11.66
2024-03-07T22:04:21.127Z,11.46
2024-03-07T22:08:22.587Z,11.38
2024-03-07T22:12:24.177Z,11.31
2024-03-07T22:16:28.115Z,11.30
2024-03-07T22:20:30.096Z,11.25
2024-03-07T22:24:31.647Z,11.61
2024-03-07T22:28:34.568Z,11.61
2024-03-07T22:32:37.581Z,11.24
2024-03-07T22:36:46.207Z,11.51
2024-03-07T22:40:47.782Z,11.19
2024-03-07T22:44:49.266Z,11.21
2024-03-07T22:48:50.929Z,11.29
2024-03-07T22:52:52.439Z,11.23
2024-03-07T22:56:54.086Z,11.28
2024-03-07T23:00:55.864Z,11.10
2024-03-07T23:04:57.319Z,11.13
2024-03-07T23:09:04.907Z,11.20
2024-03-07T23:13:06.521Z,11.46
2024-03-07T23:17:09.483Z,11.10
2024-03-07T23:21:11.311Z,11.18
2024-03-07T23:25:14.529Z,11.38
2024-03-07T23:29:16.515Z,11.01
2024-03-07T23:33:18.247Z,10.98
2024-03-07T23:37:21.574Z,11.28
2024-03-07T23:41:23.142Z,11.33
2024-03-07T23:45:25.029Z,11.25
2024-03-07T23:49:26.629Z,10.92
2024-03-07T23:53:28.152Z,11.27
2024-03-07T23:57:31.665Z,11.16
